Aérodrome :
LOGIN :

S'inscrire | Disclaimer

   EN    FR    IT 

 










Légende :    VFR   VFR Marginal   IFR   IFR Intensif   IFR Très Intensif
Visi : 
Plafond : 
>= 8 km
>= 3000ft
5 à 8 km
1000 à 3000 ft
1500m à 5 km
500 à 1000 ft
800 à 1500m
200 à 500 ft
< 800m
< 200 ft
Symboles :   Orages  Brouillard  Fortes neiges  Fortes précipitations  Vent > 20 kt
SIGMETs :   Divers  Orages  Givrage  Turbulence  Onde Orograph.  Cendres Volcan.






- Altitude de l'aérodrome : 1900 ft
- Code IATA : FEZ


GMFF - Fez Saiss

DERNIER METAR :
  • 112230Z 19007KT CAVOK 07/06 Q1029 NOSIG

METARs EXPIRÉS :
  • 112200Z 19008KT CAVOK 08/07 Q1029 NOSIG
  • 112130Z 19009KT CAVOK 08/07 Q1029 NOSIG
  • 112100Z 19007KT CAVOK 08/06 Q1029 NOSIG
  • 112030Z 20007KT 9000 NSC 07/07 Q1029 NOSIG
  • 112000Z 20006KT 7000 NSC 08/07 Q1028 NOSIG

TAF TAF GMFF
Valide du 11 à 18h jusqu'au 13 à 00h UTC


111700Z 1118/1224 28008KT CAVOK
BECMG 1120/1124 SCT010 SCT200
TEMPO 1201/1209 2000 BR BKN006
BECMG 1210/1213 28010KT



MET'MAP, la Météo Aéronautique d'un coup d'oeil ! - Copyright ORBIFLY Décembre 2007 - Disclaimer

ORBIFLY MET'MAP TEAM :

Programmation & Développement : Alexandra Zaïnal
Sur une idée originale de : Baudouin d'Aumeries
Assistance à la programmation : Marc-Olivier Méhu
Soutien technique & logistique : Manuel Goepfert

Contact : metmap@orbifly.com




SOURCES & CREDITS :

   NOAA